sensor_id;sensor_type;location;lat;lon;timestamp;temperature;humidity
5218;DHT22;26539;51.064;6.346;2024-01-15T00:01:28;1.80;1.00
5218;DHT22;26539;51.064;6.346;2024-01-15T00:04:20;1.80;1.00
5218;DHT22;26539;51.064;6.346;2024-01-15T00:07:14;1.80;1.00
5218;DHT22;26539;51.064;6.346;2024-01-15T00:12:54;1.80;1.00
5218;DHT22;26539;51.064;6.346;2024-01-15T00:15:20;1.70;1.00
5218;DHT22;26539;51.064;6.346;2024-01-15T00:17:45;1.80;1.00
5218;DHT22;26539;51.064;6.346;2024-01-15T00:20:11;1.80;1.00
5218;DHT22;26539;51.064;6.346;2024-01-15T00:22:37;1.80;1.00
5218;DHT22;26539;51.064;6.346;2024-01-15T00:25:03;1.80;1.00
5218;DHT22;26539;51.064;6.346;2024-01-15T00:27:28;1.90;1.00
5218;DHT22;26539;51.064;6.346;2024-01-15T00:29:54;1.90;1.00
5218;DHT22;26539;51.064;6.346;2024-01-15T00:32:20;1.80;1.00
5218;DHT22;26539;51.064;6.346;2024-01-15T00:34:46;1.90;1.00
5218;DHT22;26539;51.064;6.346;2024-01-15T00:37:11;1.80;1.00
5218;DHT22;26539;51.064;6.346;2024-01-15T00:39:37;1.90;1.00
5218;DHT22;26539;51.064;6.346;2024-01-15T00:42:03;1.90;1.00
5218;DHT22;26539;51.064;6.346;2024-01-15T00:44:28;1.90;1.00
5218;DHT22;26539;51.064;6.346;2024-01-15T00:46:54;1.80;1.00
5218;DHT22;26539;51.064;6.346;2024-01-15T00:49:20;1.90;3.20
5218;DHT22;26539;51.064;6.346;2024-01-15T00:51:45;1.90;6.10
5218;DHT22;26539;51.064;6.346;2024-01-15T00:54:11;1.90;9.40
5218;DHT22;26539;51.064;6.346;2024-01-15T00:56:37;1.90;12.20
5218;DHT22;26539;51.064;6.346;2024-01-15T00:59:02;1.90;12.60
5218;DHT22;26539;51.064;6.346;2024-01-15T01:01:28;1.90;12.70
5218;DHT22;26539;51.064;6.346;2024-01-15T01:03:53;1.90;11.60
5218;DHT22;26539;51.064;6.346;2024-01-15T01:06:19;1.90;11.90
5218;DHT22;26539;51.064;6.346;2024-01-15T01:08:44;1.90;12.00
5218;DHT22;26539;51.064;6.346;2024-01-15T01:11:13;1.90;12.30
5218;DHT22;26539;51.064;6.346;2024-01-15T01:13:39;1.90;11.20
5218;DHT22;26539;51.064;6.346;2024-01-15T01:16:04;1.90;9.00
5218;DHT22;26539;51.064;6.346;2024-01-15T01:18:30;2.00;10.10
5218;DHT22;26539;51.064;6.346;2024-01-15T01:20:55;1.90;11.30
5218;DHT22;26539;51.064;6.346;2024-01-15T01:23:21;1.90;10.80
5218;DHT22;26539;51.064;6.346;2024-01-15T01:25:46;2.00;13.70
5218;DHT22;26539;51.064;6.346;2024-01-15T01:28:12;2.00;12.30
5218;DHT22;26539;51.064;6.346;2024-01-15T01:30:37;1.90;10.70
5218;DHT22;26539;51.064;6.346;2024-01-15T01:33:03;1.90;12.90
5218;DHT22;26539;51.064;6.346;2024-01-15T01:35:28;2.00;15.60
5218;DHT22;26539;51.064;6.346;2024-01-15T01:37:54;2.00;18.70
5218;DHT22;26539;51.064;6.346;2024-01-15T01:40:19;2.00;20.50
5218;DHT22;26539;51.064;6.346;2024-01-15T01:42:45;2.00;18.90
5218;DHT22;26539;51.064;6.346;2024-01-15T01:45:11;2.00;16.80
5218;DHT22;26539;51.064;6.346;2024-01-15T01:47:37;2.00;18.30
5218;DHT22;26539;51.064;6.346;2024-01-15T01:50:03;2.00;14.80
5218;DHT22;26539;51.064;6.346;2024-01-15T01:52:28;2.00;15.60
5218;DHT22;26539;51.064;6.346;2024-01-15T01:54:54;2.00;16.20
5218;DHT22;26539;51.064;6.346;2024-01-15T01:57:20;2.00;17.80
5218;DHT22;26539;51.064;6.346;2024-01-15T01:59:47;2.00;17.50
5218;DHT22;26539;51.064;6.346;2024-01-15T02:02:13;2.10;17.30
5218;DHT22;26539;51.064;6.346;2024-01-15T02:04:39;2.10;15.20
5218;DHT22;26539;51.064;6.346;2024-01-15T02:07:05;2.10;14.00
5218;DHT22;26539;51.064;6.346;2024-01-15T02:09:30;2.10;13.20
5218;DHT22;26539;51.064;6.346;2024-01-15T02:11:57;2.10;12.50
5218;DHT22;26539;51.064;6.346;2024-01-15T02:14:23;2.10;11.90
5218;DHT22;26539;51.064;6.346;2024-01-15T02:16:48;2.10;10.80
5218;DHT22;26539;51.064;6.346;2024-01-15T02:19:18;2.10;8.00
5218;DHT22;26539;51.064;6.346;2024-01-15T02:21:43;2.10;5.10
5218;DHT22;26539;51.064;6.346;2024-01-15T02:24:09;2.20;3.70
5218;DHT22;26539;51.064;6.346;2024-01-15T02:26:36;2.10;2.80
5218;DHT22;26539;51.064;6.346;2024-01-15T02:29:03;2.10;1.00
5218;DHT22;26539;51.064;6.346;2024-01-15T02:31:30;2.10;2.30
5218;DHT22;26539;51.064;6.346;2024-01-15T02:33:55;2.10;1.10
5218;DHT22;26539;51.064;6.346;2024-01-15T02:36:21;2.10;1.00
5218;DHT22;26539;51.064;6.346;2024-01-15T02:38:46;2.10;1.00
5218;DHT22;26539;51.064;6.346;2024-01-15T02:41:12;2.10;1.00
5218;DHT22;26539;51.064;6.346;2024-01-15T02:43:40;2.10;1.00
5218;DHT22;26539;51.064;6.346;2024-01-15T02:46:05;2.20;1.00
5218;DHT22;26539;51.064;6.346;2024-01-15T02:48:31;2.10;1.00
5218;DHT22;26539;51.064;6.346;2024-01-15T02:50:56;2.10;1.00
5218;DHT22;26539;51.064;6.346;2024-01-15T02:53:22;2.10;1.00
5218;DHT22;26539;51.064;6.346;2024-01-15T02:55:47;2.10;1.00
5218;DHT22;26539;51.064;6.346;2024-01-15T02:58:14;2.10;1.00
5218;DHT22;26539;51.064;6.346;2024-01-15T03:00:39;2.10;1.00
5218;DHT22;26539;51.064;6.346;2024-01-15T03:03:05;2.10;1.00
5218;DHT22;26539;51.064;6.346;2024-01-15T03:05:30;2.10;1.00
5218;DHT22;26539;51.064;6.346;2024-01-15T03:07:56;2.10;1.00
5218;DHT22;26539;51.064;6.346;2024-01-15T03:10:21;2.10;1.00
5218;DHT22;26539;51.064;6.346;2024-01-15T03:12:47;2.10;1.00
5218;DHT22;26539;51.064;6.346;2024-01-15T03:15:12;2.10;1.00
5218;DHT22;26539;51.064;6.346;2024-01-15T03:17:38;2.20;1.00
5218;DHT22;26539;51.064;6.346;2024-01-15T03:20:04;2.20;1.00
5218;DHT22;26539;51.064;6.346;2024-01-15T03:22:29;2.20;1.00
5218;DHT22;26539;51.064;6.346;2024-01-15T03:24:55;2.20;1.00
5218;DHT22;26539;51.064;6.346;2024-01-15T03:27:21;2.20;1.00
5218;DHT22;26539;51.064;6.346;2024-01-15T03:29:46;2.20;1.00
5218;DHT22;26539;51.064;6.346;2024-01-15T03:32:12;2.20;1.00
5218;DHT22;26539;51.064;6.346;2024-01-15T03:34:37;2.20;1.00
5218;DHT22;26539;51.064;6.346;2024-01-15T03:37:03;2.10;1.00
5218;DHT22;26539;51.064;6.346;2024-01-15T03:39:29;2.10;1.00
5218;DHT22;26539;51.064;6.346;2024-01-15T03:41:55;2.10;1.00
5218;DHT22;26539;51.064;6.346;2024-01-15T03:44:20;2.10;1.00
5218;DHT22;26539;51.064;6.346;2024-01-15T03:46:46;2.20;1.00
5218;DHT22;26539;51.064;6.346;2024-01-15T03:49:11;2.10;1.00
5218;DHT22;26539;51.064;6.346;2024-01-15T03:51:37;2.20;1.00
5218;DHT22;26539;51.064;6.346;2024-01-15T03:54:02;2.20;1.00
5218;DHT22;26539;51.064;6.346;2024-01-15T03:56:28;2.20;1.00
5218;DHT22;26539;51.064;6.346;2024-01-15T03:58:54;2.20;1.00
5218;DHT22;26539;51.064;6.346;2024-01-15T04:01:19;2.20;1.00
5218;DHT22;26539;51.064;6.346;2024-01-15T04:03:45;2.20;1.00
5218;DHT22;26539;51.064;6.346;2024-01-15T04:06:10;2.20;1.00
5218;DHT22;26539;51.064;6.346;2024-01-15T04:08:36;2.20;1.00
5218;DHT22;26539;51.064;6.346;2024-01-15T04:11:01;2.20;1.00
5218;DHT22;26539;51.064;6.346;2024-01-15T04:13:27;2.30;1.00
5218;DHT22;26539;51.064;6.346;2024-01-15T04:15:53;2.30;1.00
5218;DHT22;26539;51.064;6.346;2024-01-15T04:18:18;2.30;1.00
5218;DHT22;26539;51.064;6.346;2024-01-15T04:20:44;2.30;1.00
5218;DHT22;26539;51.064;6.346;2024-01-15T04:23:10;2.30;1.00
5218;DHT22;26539;51.064;6.346;2024-01-15T04:25:35;2.30;1.00
5218;DHT22;26539;51.064;6.346;2024-01-15T04:28:01;2.20;1.00
5218;DHT22;26539;51.064;6.346;2024-01-15T04:30:27;2.20;1.00
5218;DHT22;26539;51.064;6.346;2024-01-15T04:32:52;2.20;1.00
5218;DHT22;26539;51.064;6.346;2024-01-15T04:35:18;2.20;1.00
5218;DHT22;26539;51.064;6.346;2024-01-15T04:37:43;2.20;1.00
5218;DHT22;26539;51.064;6.346;2024-01-15T04:40:09;2.20;1.00
5218;DHT22;26539;51.064;6.346;2024-01-15T04:42:35;2.20;1.00
5218;DHT22;26539;51.064;6.346;2024-01-15T04:45:01;2.20;1.00
5218;DHT22;26539;51.064;6.346;2024-01-15T04:47:26;2.20;1.00
5218;DHT22;26539;51.064;6.346;2024-01-15T04:49:52;2.20;1.00
5218;DHT22;26539;51.064;6.346;2024-01-15T04:52:17;2.20;1.00
5218;DHT22;26539;51.064;6.346;2024-01-15T04:54:43;2.20;1.00
5218;DHT22;26539;51.064;6.346;2024-01-15T04:57:09;2.20;1.00
5218;DHT22;26539;51.064;6.346;2024-01-15T04:59:34;2.20;1.00
5218;DHT22;26539;51.064;6.346;2024-01-15T05:02:00;2.20;1.00
5218;DHT22;26539;51.064;6.346;2024-01-15T05:04:25;2.20;1.00
5218;DHT22;26539;51.064;6.346;2024-01-15T05:06:51;2.10;1.00
5218;DHT22;26539;51.064;6.346;2024-01-15T05:09:17;2.20;1.00
5218;DHT22;26539;51.064;6.346;2024-01-15T05:11:43;2.20;1.00
5218;DHT22;26539;51.064;6.346;2024-01-15T05:14:09;2.20;1.00
5218;DHT22;26539;51.064;6.346;2024-01-15T05:16:34;2.20;1.00
5218;DHT22;26539;51.064;6.346;2024-01-15T05:19:00;2.20;1.00
5218;DHT22;26539;51.064;6.346;2024-01-15T05:21:25;2.20;1.00
5218;DHT22;26539;51.064;6.346;2024-01-15T05:23:51;2.20;1.00
5218;DHT22;26539;51.064;6.346;2024-01-15T05:26:16;2.20;1.00
5218;DHT22;26539;51.064;6.346;2024-01-15T05:28:42;2.30;1.00
5218;DHT22;26539;51.064;6.346;2024-01-15T05:31:08;2.30;1.00
5218;DHT22;26539;51.064;6.346;2024-01-15T05:33:34;2.30;1.00
5218;DHT22;26539;51.064;6.346;2024-01-15T05:35:59;2.30;1.00
5218;DHT22;26539;51.064;6.346;2024-01-15T05:38:25;2.30;1.00
5218;DHT22;26539;51.064;6.346;2024-01-15T05:40:51;2.30;1.00
5218;DHT22;26539;51.064;6.346;2024-01-15T05:43:16;2.30;1.00
5218;DHT22;26539;51.064;6.346;2024-01-15T05:45:43;2.30;1.00
5218;DHT22;26539;51.064;6.346;2024-01-15T05:48:09;2.30;1.00
5218;DHT22;26539;51.064;6.346;2024-01-15T05:50:34;2.30;1.00
5218;DHT22;26539;51.064;6.346;2024-01-15T05:53:00;2.30;1.00
5218;DHT22;26539;51.064;6.346;2024-01-15T05:55:26;2.30;1.00
5218;DHT22;26539;51.064;6.346;2024-01-15T05:57:51;2.30;1.00
5218;DHT22;26539;51.064;6.346;2024-01-15T06:00:17;2.30;1.00
5218;DHT22;26539;51.064;6.346;2024-01-15T06:02:43;2.30;1.00
5218;DHT22;26539;51.064;6.346;2024-01-15T06:05:08;2.30;1.00
5218;DHT22;26539;51.064;6.346;2024-01-15T06:07:34;2.30;1.00
5218;DHT22;26539;51.064;6.346;2024-01-15T06:10:01;2.30;1.00
5218;DHT22;26539;51.064;6.346;2024-01-15T06:12:27;2.30;1.00
5218;DHT22;26539;51.064;6.346;2024-01-15T06:14:53;2.30;1.00
5218;DHT22;26539;51.064;6.346;2024-01-15T06:17:18;2.30;1.00
5218;DHT22;26539;51.064;6.346;2024-01-15T06:19:44;2.30;1.00
5218;DHT22;26539;51.064;6.346;2024-01-15T06:22:09;2.30;1.00
5218;DHT22;26539;51.064;6.346;2024-01-15T06:24:35;2.30;1.00
5218;DHT22;26539;51.064;6.346;2024-01-15T06:27:01;2.30;1.00
5218;DHT22;26539;51.064;6.346;2024-01-15T06:29:26;2.30;1.00
5218;DHT22;26539;51.064;6.346;2024-01-15T06:31:55;2.30;1.00
5218;DHT22;26539;51.064;6.346;2024-01-15T06:34:20;2.30;1.00
5218;DHT22;26539;51.064;6.346;2024-01-15T06:36:46;2.30;1.00
5218;DHT22;26539;51.064;6.346;2024-01-15T06:39:11;2.30;1.00
5218;DHT22;26539;51.064;6.346;2024-01-15T06:41:37;2.30;1.00
5218;DHT22;26539;51.064;6.346;2024-01-15T06:44:12;2.30;1.00
5218;DHT22;26539;51.064;6.346;2024-01-15T06:46:44;2.30;1.00
5218;DHT22;26539;51.064;6.346;2024-01-15T06:49:11;2.30;1.00
5218;DHT22;26539;51.064;6.346;2024-01-15T06:51:36;2.40;1.00
5218;DHT22;26539;51.064;6.346;2024-01-15T06:54:02;2.40;1.00
5218;DHT22;26539;51.064;6.346;2024-01-15T06:56:28;2.40;1.00
5218;DHT22;26539;51.064;6.346;2024-01-15T06:58:53;2.40;1.00
5218;DHT22;26539;51.064;6.346;2024-01-15T07:01:19;2.40;1.00
5218;DHT22;26539;51.064;6.346;2024-01-15T07:03:44;2.40;1.00
5218;DHT22;26539;51.064;6.346;2024-01-15T07:06:11;2.40;1.00
5218;DHT22;26539;51.064;6.346;2024-01-15T07:08:37;2.40;1.00
5218;DHT22;26539;51.064;6.346;2024-01-15T07:11:05;2.30;1.00
5218;DHT22;26539;51.064;6.346;2024-01-15T07:13:31;2.30;1.00
5218;DHT22;26539;51.064;6.346;2024-01-15T07:15:57;2.30;1.00
5218;DHT22;26539;51.064;6.346;2024-01-15T07:18:23;2.30;1.00
5218;DHT22;26539;51.064;6.346;2024-01-15T07:20:49;2.30;1.00
5218;DHT22;26539;51.064;6.346;2024-01-15T07:23:14;2.30;1.00
5218;DHT22;26539;51.064;6.346;2024-01-15T07:25:40;2.30;1.00
5218;DHT22;26539;51.064;6.346;2024-01-15T07:28:06;2.40;1.00
5218;DHT22;26539;51.064;6.346;2024-01-15T07:30:31;2.40;1.00
5218;DHT22;26539;51.064;6.346;2024-01-15T07:32:57;2.50;1.00
5218;DHT22;26539;51.064;6.346;2024-01-15T07:35:22;2.60;1.00
5218;DHT22;26539;51.064;6.346;2024-01-15T07:37:48;2.60;1.00
5218;DHT22;26539;51.064;6.346;2024-01-15T07:40:13;2.70;1.00
5218;DHT22;26539;51.064;6.346;2024-01-15T07:42:39;2.70;1.00
5218;DHT22;26539;51.064;6.346;2024-01-15T07:45:05;2.70;1.00
5218;DHT22;26539;51.064;6.346;2024-01-15T07:47:31;2.70;1.00
5218;DHT22;26539;51.064;6.346;2024-01-15T07:49:57;2.70;1.00
5218;DHT22;26539;51.064;6.346;2024-01-15T07:52:22;2.70;1.00
5218;DHT22;26539;51.064;6.346;2024-01-15T07:54:48;2.70;1.00
5218;DHT22;26539;51.064;6.346;2024-01-15T07:57:13;2.70;1.00
5218;DHT22;26539;51.064;6.346;2024-01-15T07:59:39;2.70;1.00
5218;DHT22;26539;51.064;6.346;2024-01-15T08:02:05;2.70;1.00
5218;DHT22;26539;51.064;6.346;2024-01-15T08:04:31;2.70;1.00
5218;DHT22;26539;51.064;6.346;2024-01-15T08:06:57;2.60;1.00
5218;DHT22;26539;51.064;6.346;2024-01-15T08:09:23;2.60;1.00
5218;DHT22;26539;51.064;6.346;2024-01-15T08:11:48;2.60;1.00
5218;DHT22;26539;51.064;6.346;2024-01-15T08:14:15;2.60;1.00
5218;DHT22;26539;51.064;6.346;2024-01-15T08:16:40;2.60;1.00
5218;DHT22;26539;51.064;6.346;2024-01-15T08:19:06;2.60;1.00
5218;DHT22;26539;51.064;6.346;2024-01-15T08:21:32;2.60;1.00
5218;DHT22;26539;51.064;6.346;2024-01-15T08:24:02;2.60;1.00
5218;DHT22;26539;51.064;6.346;2024-01-15T08:26:28;2.60;1.00
5218;DHT22;26539;51.064;6.346;2024-01-15T08:28:54;2.60;1.00
5218;DHT22;26539;51.064;6.346;2024-01-15T08:31:19;2.60;1.00
5218;DHT22;26539;51.064;6.346;2024-01-15T08:33:45;2.60;1.00
5218;DHT22;26539;51.064;6.346;2024-01-15T08:36:11;2.60;1.00
5218;DHT22;26539;51.064;6.346;2024-01-15T08:38:36;2.60;1.00
5218;DHT22;26539;51.064;6.346;2024-01-15T08:41:02;2.60;1.00
5218;DHT22;26539;51.064;6.346;2024-01-15T08:43:28;2.60;1.00
5218;DHT22;26539;51.064;6.346;2024-01-15T08:45:53;2.60;1.00
5218;DHT22;26539;51.064;6.346;2024-01-15T08:48:19;2.60;1.00
5218;DHT22;26539;51.064;6.346;2024-01-15T08:50:44;2.60;1.00
5218;DHT22;26539;51.064;6.346;2024-01-15T08:53:13;2.60;1.00
5218;DHT22;26539;51.064;6.346;2024-01-15T08:55:39;2.60;1.00
5218;DHT22;26539;51.064;6.346;2024-01-15T08:58:05;2.60;1.00
5218;DHT22;26539;51.064;6.346;2024-01-15T09:00:31;2.60;1.00
5218;DHT22;26539;51.064;6.346;2024-01-15T09:02:57;2.60;1.00
5218;DHT22;26539;51.064;6.346;2024-01-15T09:05:22;2.50;1.00
5218;DHT22;26539;51.064;6.346;2024-01-15T09:07:48;2.50;1.00
5218;DHT22;26539;51.064;6.346;2024-01-15T09:10:14;2.50;1.00
5218;DHT22;26539;51.064;6.346;2024-01-15T09:12:40;2.50;1.00
5218;DHT22;26539;51.064;6.346;2024-01-15T09:15:06;2.50;1.00
5218;DHT22;26539;51.064;6.346;2024-01-15T09:17:32;2.50;1.00
5218;DHT22;26539;51.064;6.346;2024-01-15T09:19:58;2.60;1.00
5218;DHT22;26539;51.064;6.346;2024-01-15T09:22:23;2.60;1.00
5218;DHT22;26539;51.064;6.346;2024-01-15T09:24:49;2.70;1.00
5218;DHT22;26539;51.064;6.346;2024-01-15T09:27:14;2.70;1.00
5218;DHT22;26539;51.064;6.346;2024-01-15T09:29:41;2.80;1.00
5218;DHT22;26539;51.064;6.346;2024-01-15T09:32:08;2.90;1.00
5218;DHT22;26539;51.064;6.346;2024-01-15T09:34:34;2.80;1.00
5218;DHT22;26539;51.064;6.346;2024-01-15T09:36:59;2.90;1.00
5218;DHT22;26539;51.064;6.346;2024-01-15T09:39:27;2.90;1.00
5218;DHT22;26539;51.064;6.346;2024-01-15T09:41:54;2.80;1.00
5218;DHT22;26539;51.064;6.346;2024-01-15T09:44:19;2.80;1.00
5218;DHT22;26539;51.064;6.346;2024-01-15T09:46:46;2.80;1.00
5218;DHT22;26539;51.064;6.346;2024-01-15T09:49:15;2.80;1.00
5218;DHT22;26539;51.064;6.346;2024-01-15T09:51:41;2.80;1.00
5218;DHT22;26539;51.064;6.346;2024-01-15T09:54:07;2.90;1.00
5218;DHT22;26539;51.064;6.346;2024-01-15T09:56:34;2.90;1.00
5218;DHT22;26539;51.064;6.346;2024-01-15T09:59:00;2.90;1.00
5218;DHT22;26539;51.064;6.346;2024-01-15T10:01:26;2.90;1.00
5218;DHT22;26539;51.064;6.346;2024-01-15T10:03:51;2.90;1.00
5218;DHT22;26539;51.064;6.346;2024-01-15T10:06:18;2.80;1.00
5218;DHT22;26539;51.064;6.346;2024-01-15T10:08:48;2.80;1.00
5218;DHT22;26539;51.064;6.346;2024-01-15T10:11:14;2.80;1.00
5218;DHT22;26539;51.064;6.346;2024-01-15T10:13:40;2.80;1.00
5218;DHT22;26539;51.064;6.346;2024-01-15T10:16:05;2.70;1.00
5218;DHT22;26539;51.064;6.346;2024-01-15T10:18:32;2.70;1.00
5218;DHT22;26539;51.064;6.346;2024-01-15T10:20:58;2.70;1.00
5218;DHT22;26539;51.064;6.346;2024-01-15T10:23:24;2.60;1.00
5218;DHT22;26539;51.064;6.346;2024-01-15T10:25:49;2.70;1.00
5218;DHT22;26539;51.064;6.346;2024-01-15T10:28:17;2.70;1.00
5218;DHT22;26539;51.064;6.346;2024-01-15T10:30:44;2.70;1.00
5218;DHT22;26539;51.064;6.346;2024-01-15T10:33:10;2.80;1.00
5218;DHT22;26539;51.064;6.346;2024-01-15T10:35:37;2.90;1.00
5218;DHT22;26539;51.064;6.346;2024-01-15T10:38:03;2.90;1.00
5218;DHT22;26539;51.064;6.346;2024-01-15T10:40:31;3.00;1.00
5218;DHT22;26539;51.064;6.346;2024-01-15T10:42:57;3.10;1.00
5218;DHT22;26539;51.064;6.346;2024-01-15T10:45:23;3.20;1.00
5218;DHT22;26539;51.064;6.346;2024-01-15T10:47:49;3.30;1.00
5218;DHT22;26539;51.064;6.346;2024-01-15T10:50:15;3.30;1.00
5218;DHT22;26539;51.064;6.346;2024-01-15T10:52:41;3.50;1.00
5218;DHT22;26539;51.064;6.346;2024-01-15T10:55:08;3.50;1.00
5218;DHT22;26539;51.064;6.346;2024-01-15T10:57:38;3.50;1.00
5218;DHT22;26539;51.064;6.346;2024-01-15T11:00:04;3.40;1.00
5218;DHT22;26539;51.064;6.346;2024-01-15T11:02:32;3.40;1.00
5218;DHT22;26539;51.064;6.346;2024-01-15T11:04:59;3.40;1.00
5218;DHT22;26539;51.064;6.346;2024-01-15T11:07:26;3.40;1.00
5218;DHT22;26539;51.064;6.346;2024-01-15T11:09:51;3.40;1.00
5218;DHT22;26539;51.064;6.346;2024-01-15T11:12:18;3.40;1.00
5218;DHT22;26539;51.064;6.346;2024-01-15T11:14:48;3.40;1.00
5218;DHT22;26539;51.064;6.346;2024-01-15T11:17:15;3.30;1.00
5218;DHT22;26539;51.064;6.346;2024-01-15T11:22:18;3.20;1.00
5218;DHT22;26539;51.064;6.346;2024-01-15T11:24:57;3.20;1.00
5218;DHT22;26539;51.064;6.346;2024-01-15T11:27:42;3.20;1.00
5218;DHT22;26539;51.064;6.346;2024-01-15T11:30:08;3.30;1.00
5218;DHT22;26539;51.064;6.346;2024-01-15T11:32:35;3.50;1.00
5218;DHT22;26539;51.064;6.346;2024-01-15T11:35:02;3.70;1.00
5218;DHT22;26539;51.064;6.346;2024-01-15T11:37:29;3.90;1.00
5218;DHT22;26539;51.064;6.346;2024-01-15T11:40:18;4.00;1.00
5218;DHT22;26539;51.064;6.346;2024-01-15T11:42:45;4.10;1.00
5218;DHT22;26539;51.064;6.346;2024-01-15T11:45:11;4.60;1.00
5218;DHT22;26539;51.064;6.346;2024-01-15T11:50:27;4.90;1.00
5218;DHT22;26539;51.064;6.346;2024-01-15T11:53:03;5.50;1.00
5218;DHT22;26539;51.064;6.346;2024-01-15T11:55:36;6.10;1.00
5218;DHT22;26539;51.064;6.346;2024-01-15T11:58:08;6.30;1.00
5218;DHT22;26539;51.064;6.346;2024-01-15T12:00:38;6.60;1.00
5218;DHT22;26539;51.064;6.346;2024-01-15T12:03:05;6.60;99.90
5218;DHT22;26539;51.064;6.346;2024-01-15T12:05:30;6.30;99.90
5218;DHT22;26539;51.064;6.346;2024-01-15T12:07:56;5.80;1.00
5218;DHT22;26539;51.064;6.346;2024-01-15T12:10:22;5.40;99.90
5218;DHT22;26539;51.064;6.346;2024-01-15T12:15:24;5.10;99.90
5218;DHT22;26539;51.064;6.346;2024-01-15T12:17:49;5.10;99.90
5218;DHT22;26539;51.064;6.346;2024-01-15T12:20:16;5.00;99.90
5218;DHT22;26539;51.064;6.346;2024-01-15T12:22:42;5.00;1.00
5218;DHT22;26539;51.064;6.346;2024-01-15T12:25:09;5.00;99.90
5218;DHT22;26539;51.064;6.346;2024-01-15T12:27:34;4.90;99.90
5218;DHT22;26539;51.064;6.346;2024-01-15T12:30:00;4.90;99.90
5218;DHT22;26539;51.064;6.346;2024-01-15T12:32:26;5.10;24.70
5218;DHT22;26539;51.064;6.346;2024-01-15T12:34:51;5.10;1.00
5218;DHT22;26539;51.064;6.346;2024-01-15T12:37:20;5.20;1.00
5218;DHT22;26539;51.064;6.346;2024-01-15T12:39:47;5.20;99.90
5218;DHT22;26539;51.064;6.346;2024-01-15T12:42:16;5.30;99.90
5218;DHT22;26539;51.064;6.346;2024-01-15T12:44:43;5.40;1.00
5218;DHT22;26539;51.064;6.346;2024-01-15T12:47:08;5.50;3.30
5218;DHT22;26539;51.064;6.346;2024-01-15T12:49:36;5.40;99.90
5218;DHT22;26539;51.064;6.346;2024-01-15T12:52:03;5.10;3.00
5218;DHT22;26539;51.064;6.346;2024-01-15T12:54:28;4.70;56.00
5218;DHT22;26539;51.064;6.346;2024-01-15T12:56:54;4.50;99.90
5218;DHT22;26539;51.064;6.346;2024-01-15T12:59:22;4.20;1.00
5218;DHT22;26539;51.064;6.346;2024-01-15T13:01:48;4.10;1.00
5218;DHT22;26539;51.064;6.346;2024-01-15T13:04:22;3.90;59.80
5218;DHT22;26539;51.064;6.346;2024-01-15T13:06:49;3.80;99.90
5218;DHT22;26539;51.064;6.346;2024-01-15T13:09:15;3.80;99.90
5218;DHT22;26539;51.064;6.346;2024-01-15T13:11:40;4.00;99.90
5218;DHT22;26539;51.064;6.346;2024-01-15T13:14:06;4.10;99.90
5218;DHT22;26539;51.064;6.346;2024-01-15T13:16:32;4.20;99.90
5218;DHT22;26539;51.064;6.346;2024-01-15T13:18:57;4.30;99.90
5218;DHT22;26539;51.064;6.346;2024-01-15T13:21:24;4.30;1.00
5218;DHT22;26539;51.064;6.346;2024-01-15T13:23:49;4.10;1.00
5218;DHT22;26539;51.064;6.346;2024-01-15T13:26:15;4.10;99.90
5218;DHT22;26539;51.064;6.346;2024-01-15T13:28:41;4.00;99.90
5218;DHT22;26539;51.064;6.346;2024-01-15T13:31:06;4.00;99.90
5218;DHT22;26539;51.064;6.346;2024-01-15T13:33:32;4.00;99.90
5218;DHT22;26539;51.064;6.346;2024-01-15T13:35:57;4.10;99.90
5218;DHT22;26539;51.064;6.346;2024-01-15T13:38:23;4.20;1.00
5218;DHT22;26539;51.064;6.346;2024-01-15T13:40:49;4.10;1.00
5218;DHT22;26539;51.064;6.346;2024-01-15T13:43:15;4.10;1.00
5218;DHT22;26539;51.064;6.346;2024-01-15T13:45:43;3.90;1.00
5218;DHT22;26539;51.064;6.346;2024-01-15T13:48:09;3.90;55.40
5218;DHT22;26539;51.064;6.346;2024-01-15T13:50:35;3.80;99.90
5218;DHT22;26539;51.064;6.346;2024-01-15T13:53:02;3.70;99.90
5218;DHT22;26539;51.064;6.346;2024-01-15T13:55:29;3.60;99.90
5218;DHT22;26539;51.064;6.346;2024-01-15T13:57:54;3.50;99.90
5218;DHT22;26539;51.064;6.346;2024-01-15T14:00:20;3.40;1.00
5218;DHT22;26539;51.064;6.346;2024-01-15T14:02:46;3.40;1.00
5218;DHT22;26539;51.064;6.346;2024-01-15T14:05:12;3.30;1.00
5218;DHT22;26539;51.064;6.346;2024-01-15T14:07:40;3.30;1.00
5218;DHT22;26539;51.064;6.346;2024-01-15T14:10:08;3.20;1.00
5218;DHT22;26539;51.064;6.346;2024-01-15T14:12:34;3.20;1.00
5218;DHT22;26539;51.064;6.346;2024-01-15T14:15:03;3.20;1.00
5218;DHT22;26539;51.064;6.346;2024-01-15T14:17:30;3.20;1.00
5218;DHT22;26539;51.064;6.346;2024-01-15T14:19:56;3.30;1.00
5218;DHT22;26539;51.064;6.346;2024-01-15T14:22:21;3.20;1.00
5218;DHT22;26539;51.064;6.346;2024-01-15T14:24:47;3.20;1.00
5218;DHT22;26539;51.064;6.346;2024-01-15T14:27:12;3.20;1.00
5218;DHT22;26539;51.064;6.346;2024-01-15T14:29:38;3.10;1.00
5218;DHT22;26539;51.064;6.346;2024-01-15T14:32:04;3.10;1.00
5218;DHT22;26539;51.064;6.346;2024-01-15T14:34:30;3.00;1.00
5218;DHT22;26539;51.064;6.346;2024-01-15T14:36:55;3.00;1.00
5218;DHT22;26539;51.064;6.346;2024-01-15T14:39:22;2.90;1.00
5218;DHT22;26539;51.064;6.346;2024-01-15T14:41:48;2.90;1.00
5218;DHT22;26539;51.064;6.346;2024-01-15T14:44:14;2.90;1.00
5218;DHT22;26539;51.064;6.346;2024-01-15T14:46:40;2.90;1.00
5218;DHT22;26539;51.064;6.346;2024-01-15T14:49:05;2.90;1.00
5218;DHT22;26539;51.064;6.346;2024-01-15T14:51:31;2.90;1.00
5218;DHT22;26539;51.064;6.346;2024-01-15T14:53:57;3.00;1.00
5218;DHT22;26539;51.064;6.346;2024-01-15T14:56:22;3.00;1.00
5218;DHT22;26539;51.064;6.346;2024-01-15T14:58:48;3.00;1.00
5218;DHT22;26539;51.064;6.346;2024-01-15T15:01:14;3.00;1.00
5218;DHT22;26539;51.064;6.346;2024-01-15T15:03:40;3.00;1.00
5218;DHT22;26539;51.064;6.346;2024-01-15T15:06:06;3.00;1.00
5218;DHT22;26539;51.064;6.346;2024-01-15T15:08:33;2.90;1.00
5218;DHT22;26539;51.064;6.346;2024-01-15T15:10:59;2.80;1.00
5218;DHT22;26539;51.064;6.346;2024-01-15T15:13:25;2.80;1.00
5218;DHT22;26539;51.064;6.346;2024-01-15T15:15:51;2.70;1.00
5218;DHT22;26539;51.064;6.346;2024-01-15T15:18:17;2.70;1.00
5218;DHT22;26539;51.064;6.346;2024-01-15T15:20:43;2.70;1.00
5218;DHT22;26539;51.064;6.346;2024-01-15T15:23:08;2.60;1.00
5218;DHT22;26539;51.064;6.346;2024-01-15T15:25:35;2.60;1.00
5218;DHT22;26539;51.064;6.346;2024-01-15T15:28:01;2.50;1.00
5218;DHT22;26539;51.064;6.346;2024-01-15T15:30:27;2.50;1.00
5218;DHT22;26539;51.064;6.346;2024-01-15T15:32:52;2.50;1.00
5218;DHT22;26539;51.064;6.346;2024-01-15T15:35:18;2.40;1.00
5218;DHT22;26539;51.064;6.346;2024-01-15T15:37:44;2.30;1.00
5218;DHT22;26539;51.064;6.346;2024-01-15T15:40:09;2.30;1.00
5218;DHT22;26539;51.064;6.346;2024-01-15T15:42:36;2.30;1.00
5218;DHT22;26539;51.064;6.346;2024-01-15T15:45:03;2.20;1.00
5218;DHT22;26539;51.064;6.346;2024-01-15T15:47:29;2.20;1.00
5218;DHT22;26539;51.064;6.346;2024-01-15T15:49:54;2.20;1.00
5218;DHT22;26539;51.064;6.346;2024-01-15T15:52:20;2.20;1.00
5218;DHT22;26539;51.064;6.346;2024-01-15T15:54:45;2.30;1.00
5218;DHT22;26539;51.064;6.346;2024-01-15T15:57:11;2.40;1.00
5218;DHT22;26539;51.064;6.346;2024-01-15T15:59:36;2.40;1.00
5218;DHT22;26539;51.064;6.346;2024-01-15T16:02:02;2.40;1.00
5218;DHT22;26539;51.064;6.346;2024-01-15T16:04:28;2.50;1.00
5218;DHT22;26539;51.064;6.346;2024-01-15T16:06:53;2.50;1.00
5218;DHT22;26539;51.064;6.346;2024-01-15T16:09:19;2.50;1.00
5218;DHT22;26539;51.064;6.346;2024-01-15T16:11:45;2.50;1.00
5218;DHT22;26539;51.064;6.346;2024-01-15T16:14:11;2.50;1.00
5218;DHT22;26539;51.064;6.346;2024-01-15T16:16:36;2.50;1.00
5218;DHT22;26539;51.064;6.346;2024-01-15T16:19:02;2.40;1.00